sensor_id;sensor_type;location;lat;lon;timestamp;P1;durP1;ratioP1;P2;durP2;ratioP2
77866;SDS011;67271;59.120;37.970;2023-03-01T00:05:12;1.58;;;1.08;;
77866;SDS011;67271;59.120;37.970;2023-03-01T00:07:38;6.47;;;1.83;;
77866;SDS011;67271;59.120;37.970;2023-03-01T00:10:03;2.25;;;1.40;;
77866;SDS011;67271;59.120;37.970;2023-03-01T00:12:31;2.63;;;1.55;;
77866;SDS011;67271;59.120;37.970;2023-03-01T00:14:57;5.72;;;2.15;;
77866;SDS011;67271;59.120;37.970;2023-03-01T00:17:22;2.65;;;1.70;;
77866;SDS011;67271;59.120;37.970;2023-03-01T00:19:48;6.93;;;2.28;;
77866;SDS011;67271;59.120;37.970;2023-03-01T00:22:14;4.45;;;2.10;;
77866;SDS011;67271;59.120;37.970;2023-03-01T00:24:40;11.75;;;2.10;;
77866;SDS011;67271;59.120;37.970;2023-03-01T00:27:05;5.07;;;1.88;;
77866;SDS011;67271;59.120;37.970;2023-03-01T00:29:31;8.02;;;2.35;;
77866;SDS011;67271;59.120;37.970;2023-03-01T00:31:57;5.68;;;1.58;;
77866;SDS011;67271;59.120;37.970;2023-03-01T00:34:22;4.03;;;1.88;;
77866;SDS011;67271;59.120;37.970;2023-03-01T00:36:48;6.88;;;2.00;;
77866;SDS011;67271;59.120;37.970;2023-03-01T00:39:14;8.50;;;2.55;;
77866;SDS011;67271;59.120;37.970;2023-03-01T00:41:41;3.40;;;1.65;;
77866;SDS011;67271;59.120;37.970;2023-03-01T00:44:07;4.38;;;1.40;;
77866;SDS011;67271;59.120;37.970;2023-03-01T00:46:34;2.42;;;1.55;;
77866;SDS011;67271;59.120;37.970;2023-03-01T00:49:00;1.45;;;1.08;;
77866;SDS011;67271;59.120;37.970;2023-03-01T00:51:27;1.77;;;1.15;;
77866;SDS011;67271;59.120;37.970;2023-03-01T00:53:56;0.63;;;0.63;;
77866;SDS011;67271;59.120;37.970;2023-03-01T00:56:24;1.38;;;0.95;;
77866;SDS011;67271;59.120;37.970;2023-03-01T00:58:50;2.08;;;1.45;;
77866;SDS011;67271;59.120;37.970;2023-03-01T01:01:20;0.85;;;0.68;;
77866;SDS011;67271;59.120;37.970;2023-03-01T01:03:52;4.38;;;1.52;;
77866;SDS011;67271;59.120;37.970;2023-03-01T01:06:27;3.17;;;1.33;;
77866;SDS011;67271;59.120;37.970;2023-03-01T01:08:55;3.80;;;1.48;;
77866;SDS011;67271;59.120;37.970;2023-03-01T01:11:22;1.65;;;1.00;;
77866;SDS011;67271;59.120;37.970;2023-03-01T01:13:49;10.00;;;1.67;;
77866;SDS011;67271;59.120;37.970;2023-03-01T01:16:16;1.98;;;1.30;;
77866;SDS011;67271;59.120;37.970;2023-03-01T01:18:44;3.55;;;1.20;;
77866;SDS011;67271;59.120;37.970;2023-03-01T01:21:12;3.35;;;1.55;;
77866;SDS011;67271;59.120;37.970;2023-03-01T01:23:41;2.30;;;0.85;;
77866;SDS011;67271;59.120;37.970;2023-03-01T01:26:09;3.90;;;1.33;;
77866;SDS011;67271;59.120;37.970;2023-03-01T01:28:37;5.30;;;1.85;;
77866;SDS011;67271;59.120;37.970;2023-03-01T01:31:03;7.97;;;1.08;;
77866;SDS011;67271;59.120;37.970;2023-03-01T01:33:29;2.83;;;1.35;;
77866;SDS011;67271;59.120;37.970;2023-03-01T01:35:55;3.55;;;2.08;;
77866;SDS011;67271;59.120;37.970;2023-03-01T01:38:21;7.03;;;2.53;;
77866;SDS011;67271;59.120;37.970;2023-03-01T01:40:48;9.73;;;3.17;;
77866;SDS011;67271;59.120;37.970;2023-03-01T01:43:28;11.80;;;2.78;;
77866;SDS011;67271;59.120;37.970;2023-03-01T01:48:43;9.55;;;3.45;;
77866;SDS011;67271;59.120;37.970;2023-03-01T01:51:37;7.00;;;3.35;;
77866;SDS011;67271;59.120;37.970;2023-03-01T01:54:08;7.38;;;2.58;;
77866;SDS011;67271;59.120;37.970;2023-03-01T01:56:37;4.57;;;1.92;;
77866;SDS011;67271;59.120;37.970;2023-03-01T01:59:08;5.65;;;2.05;;
77866;SDS011;67271;59.120;37.970;2023-03-01T02:01:34;8.85;;;2.45;;
77866;SDS011;67271;59.120;37.970;2023-03-01T02:04:00;1.13;;;0.73;;
77866;SDS011;67271;59.120;37.970;2023-03-01T02:06:31;21.05;;;1.38;;
77866;SDS011;67271;59.120;37.970;2023-03-01T02:09:12;3.10;;;0.77;;
77866;SDS011;67271;59.120;37.970;2023-03-01T02:11:39;2.15;;;1.23;;
77866;SDS011;67271;59.120;37.970;2023-03-01T02:14:05;0.98;;;0.95;;
77866;SDS011;67271;59.120;37.970;2023-03-01T02:16:31;2.72;;;1.25;;
77866;SDS011;67271;59.120;37.970;2023-03-01T02:18:58;2.85;;;1.35;;
77866;SDS011;67271;59.120;37.970;2023-03-01T02:26:51;0.77;;;0.68;;
77866;SDS011;67271;59.120;37.970;2023-03-01T02:29:20;0.93;;;0.60;;
77866;SDS011;67271;59.120;37.970;2023-03-01T02:31:47;0.73;;;0.63;;
77866;SDS011;67271;59.120;37.970;2023-03-01T02:34:18;5.13;;;0.98;;
77866;SDS011;67271;59.120;37.970;2023-03-01T02:39:19;1.13;;;1.02;;
77866;SDS011;67271;59.120;37.970;2023-03-01T02:41:52;3.95;;;0.85;;
77866;SDS011;67271;59.120;37.970;2023-03-01T02:44:21;1.02;;;0.68;;
77866;SDS011;67271;59.120;37.970;2023-03-01T02:46:52;1.02;;;0.98;;
77866;SDS011;67271;59.120;37.970;2023-03-01T02:49:28;3.05;;;2.00;;
77866;SDS011;67271;59.120;37.970;2023-03-01T02:57:31;0.40;;;0.40;;
77866;SDS011;67271;59.120;37.970;2023-03-01T02:59:59;0.60;;;0.55;;
77866;SDS011;67271;59.120;37.970;2023-03-01T03:02:33;1.13;;;1.00;;
77866;SDS011;67271;59.120;37.970;2023-03-01T03:05:16;3.50;;;0.63;;
77866;SDS011;67271;59.120;37.970;2023-03-01T03:07:45;5.65;;;0.88;;
77866;SDS011;67271;59.120;37.970;2023-03-01T03:10:23;0.52;;;0.28;;
77866;SDS011;67271;59.120;37.970;2023-03-01T03:12:53;2.20;;;0.77;;
77866;SDS011;67271;59.120;37.970;2023-03-01T03:15:21;4.30;;;0.98;;
77866;SDS011;67271;59.120;37.970;2023-03-01T03:17:48;2.53;;;0.55;;
77866;SDS011;67271;59.120;37.970;2023-03-01T03:20:15;3.03;;;0.57;;
77866;SDS011;67271;59.120;37.970;2023-03-01T03:22:47;0.77;;;0.47;;
77866;SDS011;67271;59.120;37.970;2023-03-01T03:25:13;2.10;;;0.73;;
77866;SDS011;67271;59.120;37.970;2023-03-01T03:27:40;0.60;;;0.60;;
77866;SDS011;67271;59.120;37.970;2023-03-01T03:30:08;3.63;;;0.50;;
77866;SDS011;67271;59.120;37.970;2023-03-01T03:32:37;0.88;;;0.88;;
77866;SDS011;67271;59.120;37.970;2023-03-01T03:35:04;0.93;;;0.88;;
77866;SDS011;67271;59.120;37.970;2023-03-01T03:37:38;0.73;;;0.55;;
77866;SDS011;67271;59.120;37.970;2023-03-01T03:40:24;1.33;;;1.10;;
77866;SDS011;67271;59.120;37.970;2023-03-01T03:42:50;1.98;;;0.93;;
77866;SDS011;67271;59.120;37.970;2023-03-01T03:45:16;1.27;;;1.17;;
77866;SDS011;67271;59.120;37.970;2023-03-01T03:47:43;1.10;;;0.93;;
77866;SDS011;67271;59.120;37.970;2023-03-01T03:50:10;4.82;;;1.30;;
77866;SDS011;67271;59.120;37.970;2023-03-01T03:52:37;2.47;;;0.90;;
77866;SDS011;67271;59.120;37.970;2023-03-01T03:55:03;1.98;;;1.17;;
77866;SDS011;67271;59.120;37.970;2023-03-01T03:57:34;0.77;;;0.43;;
77866;SDS011;67271;59.120;37.970;2023-03-01T04:00:00;2.72;;;1.17;;
77866;SDS011;67271;59.120;37.970;2023-03-01T04:02:37;3.33;;;1.63;;
77866;SDS011;67271;59.120;37.970;2023-03-01T04:05:04;0.45;;;0.45;;
77866;SDS011;67271;59.120;37.970;2023-03-01T04:07:31;2.15;;;1.00;;
77866;SDS011;67271;59.120;37.970;2023-03-01T04:09:56;1.25;;;1.00;;
77866;SDS011;67271;59.120;37.970;2023-03-01T04:12:22;4.18;;;1.05;;
77866;SDS011;67271;59.120;37.970;2023-03-01T04:14:48;2.25;;;1.83;;
77866;SDS011;67271;59.120;37.970;2023-03-01T04:17:14;2.78;;;1.30;;
77866;SDS011;67271;59.120;37.970;2023-03-01T04:19:39;1.10;;;0.65;;
77866;SDS011;67271;59.120;37.970;2023-03-01T04:22:05;0.80;;;0.63;;
77866;SDS011;67271;59.120;37.970;2023-03-01T04:24:35;7.18;;;1.23;;
77866;SDS011;67271;59.120;37.970;2023-03-01T04:27:01;2.70;;;1.35;;
77866;SDS011;67271;59.120;37.970;2023-03-01T04:29:27;2.53;;;0.38;;
77866;SDS011;67271;59.120;37.970;2023-03-01T04:31:53;3.15;;;0.55;;
77866;SDS011;67271;59.120;37.970;2023-03-01T04:34:18;1.15;;;1.00;;
77866;SDS011;67271;59.120;37.970;2023-03-01T04:36:44;2.15;;;1.13;;
77866;SDS011;67271;59.120;37.970;2023-03-01T04:39:10;3.95;;;0.90;;
77866;SDS011;67271;59.120;37.970;2023-03-01T04:41:38;4.05;;;0.85;;
77866;SDS011;67271;59.120;37.970;2023-03-01T04:44:05;1.55;;;0.95;;
77866;SDS011;67271;59.120;37.970;2023-03-01T04:46:31;6.38;;;1.75;;
77866;SDS011;67271;59.120;37.970;2023-03-01T04:48:57;0.95;;;0.65;;
77866;SDS011;67271;59.120;37.970;2023-03-01T04:51:23;1.63;;;0.98;;
77866;SDS011;67271;59.120;37.970;2023-03-01T04:53:49;2.25;;;1.48;;
77866;SDS011;67271;59.120;37.970;2023-03-01T04:56:15;1.05;;;0.52;;
77866;SDS011;67271;59.120;37.970;2023-03-01T04:58:43;0.70;;;0.70;;
77866;SDS011;67271;59.120;37.970;2023-03-01T05:01:10;3.67;;;1.02;;
77866;SDS011;67271;59.120;37.970;2023-03-01T05:03:43;4.47;;;1.50;;
77866;SDS011;67271;59.120;37.970;2023-03-01T05:06:11;1.45;;;0.73;;
77866;SDS011;67271;59.120;37.970;2023-03-01T05:08:37;1.45;;;0.73;;
77866;SDS011;67271;59.120;37.970;2023-03-01T05:11:04;2.75;;;1.35;;
77866;SDS011;67271;59.120;37.970;2023-03-01T05:13:31;1.38;;;1.13;;
77866;SDS011;67271;59.120;37.970;2023-03-01T05:15:58;1.98;;;0.75;;
77866;SDS011;67271;59.120;37.970;2023-03-01T05:18:26;1.52;;;1.30;;
77866;SDS011;67271;59.120;37.970;2023-03-01T05:21:01;1.20;;;0.75;;
77866;SDS011;67271;59.120;37.970;2023-03-01T05:23:29;3.90;;;1.52;;
77866;SDS011;67271;59.120;37.970;2023-03-01T05:25:58;4.53;;;1.25;;
77866;SDS011;67271;59.120;37.970;2023-03-01T05:28:25;1.75;;;1.40;;
77866;SDS011;67271;59.120;37.970;2023-03-01T05:30:51;1.45;;;1.35;;
77866;SDS011;67271;59.120;37.970;2023-03-01T05:33:17;1.75;;;0.85;;
77866;SDS011;67271;59.120;37.970;2023-03-01T05:35:44;5.00;;;1.58;;
77866;SDS011;67271;59.120;37.970;2023-03-01T05:38:11;5.18;;;2.70;;
77866;SDS011;67271;59.120;37.970;2023-03-01T05:40:44;3.92;;;1.27;;
77866;SDS011;67271;59.120;37.970;2023-03-01T05:43:12;2.28;;;0.28;;
77866;SDS011;67271;59.120;37.970;2023-03-01T05:45:39;2.47;;;0.73;;
77866;SDS011;67271;59.120;37.970;2023-03-01T05:48:06;3.22;;;1.58;;
77866;SDS011;67271;59.120;37.970;2023-03-01T05:50:34;7.70;;;1.80;;
77866;SDS011;67271;59.120;37.970;2023-03-01T05:53:02;3.35;;;1.65;;
77866;SDS011;67271;59.120;37.970;2023-03-01T05:55:31;5.50;;;2.33;;
77866;SDS011;67271;59.120;37.970;2023-03-01T05:57:59;5.15;;;2.03;;
77866;SDS011;67271;59.120;37.970;2023-03-01T06:00:29;3.63;;;1.88;;
77866;SDS011;67271;59.120;37.970;2023-03-01T06:02:56;6.95;;;2.92;;
77866;SDS011;67271;59.120;37.970;2023-03-01T06:05:23;4.00;;;2.65;;
77866;SDS011;67271;59.120;37.970;2023-03-01T06:07:49;8.77;;;3.22;;
77866;SDS011;67271;59.120;37.970;2023-03-01T06:10:16;5.57;;;1.85;;
77866;SDS011;67271;59.120;37.970;2023-03-01T06:12:43;4.13;;;1.70;;
77866;SDS011;67271;59.120;37.970;2023-03-01T06:15:10;4.88;;;1.65;;
77866;SDS011;67271;59.120;37.970;2023-03-01T06:17:38;2.70;;;2.13;;
77866;SDS011;67271;59.120;37.970;2023-03-01T06:20:09;2.50;;;1.20;;
77866;SDS011;67271;59.120;37.970;2023-03-01T06:22:37;4.13;;;1.75;;
77866;SDS011;67271;59.120;37.970;2023-03-01T06:25:03;1.48;;;1.23;;
77866;SDS011;67271;59.120;37.970;2023-03-01T06:27:30;3.92;;;1.33;;
77866;SDS011;67271;59.120;37.970;2023-03-01T06:29:55;5.68;;;1.05;;
77866;SDS011;67271;59.120;37.970;2023-03-01T06:32:21;2.20;;;1.27;;
77866;SDS011;67271;59.120;37.970;2023-03-01T06:34:47;6.97;;;1.33;;
77866;SDS011;67271;59.120;37.970;2023-03-01T06:37:13;3.47;;;1.52;;
77866;SDS011;67271;59.120;37.970;2023-03-01T06:39:39;7.47;;;1.58;;
77866;SDS011;67271;59.120;37.970;2023-03-01T06:42:04;7.55;;;2.22;;
77866;SDS011;67271;59.120;37.970;2023-03-01T06:44:30;2.58;;;1.98;;
77866;SDS011;67271;59.120;37.970;2023-03-01T06:46:56;3.55;;;1.92;;
77866;SDS011;67271;59.120;37.970;2023-03-01T06:49:22;1.42;;;1.33;;
77866;SDS011;67271;59.120;37.970;2023-03-01T06:51:47;2.78;;;1.65;;
77866;SDS011;67271;59.120;37.970;2023-03-01T06:54:13;0.88;;;0.82;;
77866;SDS011;67271;59.120;37.970;2023-03-01T06:56:39;0.77;;;0.70;;
77866;SDS011;67271;59.120;37.970;2023-03-01T06:59:05;3.13;;;1.27;;
77866;SDS011;67271;59.120;37.970;2023-03-01T07:01:31;2.45;;;1.27;;
77866;SDS011;67271;59.120;37.970;2023-03-01T07:03:57;2.63;;;1.40;;
77866;SDS011;67271;59.120;37.970;2023-03-01T07:06:24;1.42;;;1.02;;
77866;SDS011;67271;59.120;37.970;2023-03-01T07:08:50;4.85;;;1.67;;
77866;SDS011;67271;59.120;37.970;2023-03-01T07:11:15;9.45;;;1.20;;
77866;SDS011;67271;59.120;37.970;2023-03-01T07:13:41;4.03;;;1.33;;
77866;SDS011;67271;59.120;37.970;2023-03-01T07:16:07;2.42;;;1.42;;
77866;SDS011;67271;59.120;37.970;2023-03-01T07:18:33;5.03;;;1.15;;
77866;SDS011;67271;59.120;37.970;2023-03-01T07:21:03;4.13;;;2.53;;
77866;SDS011;67271;59.120;37.970;2023-03-01T07:23:31;3.63;;;1.42;;
77866;SDS011;67271;59.120;37.970;2023-03-01T07:25:56;2.83;;;1.52;;
77866;SDS011;67271;59.120;37.970;2023-03-01T07:28:23;1.88;;;0.85;;
77866;SDS011;67271;59.120;37.970;2023-03-01T07:30:49;1.92;;;1.52;;
77866;SDS011;67271;59.120;37.970;2023-03-01T07:33:15;3.10;;;1.48;;
77866;SDS011;67271;59.120;37.970;2023-03-01T07:35:41;6.78;;;2.33;;
77866;SDS011;67271;59.120;37.970;2023-03-01T07:38:07;0.95;;;0.95;;
77866;SDS011;67271;59.120;37.970;2023-03-01T07:40:33;2.33;;;0.85;;
77866;SDS011;67271;59.120;37.970;2023-03-01T07:42:59;3.13;;;1.23;;
77866;SDS011;67271;59.120;37.970;2023-03-01T07:45:26;2.55;;;1.27;;
77866;SDS011;67271;59.120;37.970;2023-03-01T07:47:54;4.78;;;1.40;;
77866;SDS011;67271;59.120;37.970;2023-03-01T07:50:20;5.65;;;1.90;;
77866;SDS011;67271;59.120;37.970;2023-03-01T07:52:48;7.10;;;2.83;;
77866;SDS011;67271;59.120;37.970;2023-03-01T07:55:15;12.85;;;3.22;;
77866;SDS011;67271;59.120;37.970;2023-03-01T07:57:42;7.95;;;3.00;;
77866;SDS011;67271;59.120;37.970;2023-03-01T08:00:08;5.10;;;2.70;;
77866;SDS011;67271;59.120;37.970;2023-03-01T08:02:39;7.57;;;2.78;;
77866;SDS011;67271;59.120;37.970;2023-03-01T08:05:07;6.63;;;2.75;;
77866;SDS011;67271;59.120;37.970;2023-03-01T08:07:34;2.83;;;2.05;;
77866;SDS011;67271;59.120;37.970;2023-03-01T08:10:00;13.40;;;3.35;;
77866;SDS011;67271;59.120;37.970;2023-03-01T08:12:26;3.90;;;2.00;;
77866;SDS011;67271;59.120;37.970;2023-03-01T08:14:53;6.38;;;2.55;;
77866;SDS011;67271;59.120;37.970;2023-03-01T08:17:19;12.95;;;3.15;;
77866;SDS011;67271;59.120;37.970;2023-03-01T08:19:45;5.82;;;2.10;;
77866;SDS011;67271;59.120;37.970;2023-03-01T08:22:11;6.35;;;2.53;;
77866;SDS011;67271;59.120;37.970;2023-03-01T08:24:36;11.68;;;2.20;;
77866;SDS011;67271;59.120;37.970;2023-03-01T08:27:02;4.47;;;2.30;;
77866;SDS011;67271;59.120;37.970;2023-03-01T08:29:32;8.75;;;2.33;;
77866;SDS011;67271;59.120;37.970;2023-03-01T08:31:58;14.70;;;3.00;;
77866;SDS011;67271;59.120;37.970;2023-03-01T08:34:24;7.82;;;3.13;;
77866;SDS011;67271;59.120;37.970;2023-03-01T08:36:49;5.72;;;2.20;;
77866;SDS011;67271;59.120;37.970;2023-03-01T08:39:17;10.90;;;2.80;;
77866;SDS011;67271;59.120;37.970;2023-03-01T08:41:44;4.35;;;2.33;;
77866;SDS011;67271;59.120;37.970;2023-03-01T08:44:12;4.35;;;2.25;;
77866;SDS011;67271;59.120;37.970;2023-03-01T08:46:39;3.17;;;1.15;;
77866;SDS011;67271;59.120;37.970;2023-03-01T08:49:07;7.32;;;2.60;;
77866;SDS011;67271;59.120;37.970;2023-03-01T08:51:36;3.22;;;2.33;;
77866;SDS011;67271;59.120;37.970;2023-03-01T08:54:03;8.00;;;2.45;;
77866;SDS011;67271;59.120;37.970;2023-03-01T08:56:33;12.15;;;3.80;;
77866;SDS011;67271;59.120;37.970;2023-03-01T08:58:59;17.63;;;4.80;;
77866;SDS011;67271;59.120;37.970;2023-03-01T09:01:25;3.35;;;2.10;;
77866;SDS011;67271;59.120;37.970;2023-03-01T09:03:51;6.55;;;2.50;;
77866;SDS011;67271;59.120;37.970;2023-03-01T09:06:17;6.47;;;2.92;;
77866;SDS011;67271;59.120;37.970;2023-03-01T09:08:44;13.00;;;3.75;;
77866;SDS011;67271;59.120;37.970;2023-03-01T09:11:12;6.30;;;3.28;;
77866;SDS011;67271;59.120;37.970;2023-03-01T09:13:41;4.57;;;1.83;;
77866;SDS011;67271;59.120;37.970;2023-03-01T09:16:07;4.50;;;2.42;;
77866;SDS011;67271;59.120;37.970;2023-03-01T09:18:34;2.85;;;1.30;;
77866;SDS011;67271;59.120;37.970;2023-03-01T09:21:04;6.90;;;2.53;;
77866;SDS011;67271;59.120;37.970;2023-03-01T09:23:33;2.78;;;1.83;;
77866;SDS011;67271;59.120;37.970;2023-03-01T09:26:00;2.78;;;1.90;;
77866;SDS011;67271;59.120;37.970;2023-03-01T09:28:25;5.15;;;1.75;;
77866;SDS011;67271;59.120;37.970;2023-03-01T09:30:51;2.42;;;1.38;;
77866;SDS011;67271;59.120;37.970;2023-03-01T09:33:17;6.13;;;2.42;;
77866;SDS011;67271;59.120;37.970;2023-03-01T09:35:42;10.70;;;3.75;;
77866;SDS011;67271;59.120;37.970;2023-03-01T09:38:12;9.45;;;4.22;;
77866;SDS011;67271;59.120;37.970;2023-03-01T09:40:43;7.97;;;3.38;;
77866;SDS011;67271;59.120;37.970;2023-03-01T09:45:52;7.07;;;2.80;;
77866;SDS011;67271;59.120;37.970;2023-03-01T09:48:21;3.90;;;1.88;;
77866;SDS011;67271;59.120;37.970;2023-03-01T09:50:51;6.85;;;1.88;;
77866;SDS011;67271;59.120;37.970;2023-03-01T09:53:22;6.28;;;2.75;;
77866;SDS011;67271;59.120;37.970;2023-03-01T09:55:54;10.00;;;2.85;;
77866;SDS011;67271;59.120;37.970;2023-03-01T10:09:40;5.32;;;2.33;;
77866;SDS011;67271;59.120;37.970;2023-03-01T10:12:09;14.88;;;4.05;;
77866;SDS011;67271;59.120;37.970;2023-03-01T10:17:37;7.07;;;4.38;;
77866;SDS011;67271;59.120;37.970;2023-03-01T10:20:25;3.58;;;1.73;;
77866;SDS011;67271;59.120;37.970;2023-03-01T10:22:55;5.40;;;3.33;;
77866;SDS011;67271;59.120;37.970;2023-03-01T10:25:42;6.55;;;3.65;;
77866;SDS011;67271;59.120;37.970;2023-03-01T10:30:53;8.68;;;2.92;;
77866;SDS011;67271;59.120;37.970;2023-03-01T10:33:26;12.57;;;5.30;;
77866;SDS011;67271;59.120;37.970;2023-03-01T10:35:56;27.83;;;10.60;;
77866;SDS011;67271;59.120;37.970;2023-03-01T10:38:21;6.93;;;2.13;;
77866;SDS011;67271;59.120;37.970;2023-03-01T10:43:25;3.13;;;1.98;;
77866;SDS011;67271;59.120;37.970;2023-03-01T10:45:52;6.38;;;2.60;;
77866;SDS011;67271;59.120;37.970;2023-03-01T10:48:21;7.63;;;2.67;;
77866;SDS011;67271;59.120;37.970;2023-03-01T10:51:04;14.52;;;3.55;;
77866;SDS011;67271;59.120;37.970;2023-03-01T10:53:36;8.65;;;2.03;;
77866;SDS011;67271;59.120;37.970;2023-03-01T10:56:07;6.63;;;2.83;;
77866;SDS011;67271;59.120;37.970;2023-03-01T10:58:35;8.57;;;2.97;;
77866;SDS011;67271;59.120;37.970;2023-03-01T11:01:08;6.78;;;2.50;;
77866;SDS011;67271;59.120;37.970;2023-03-01T11:06:31;9.80;;;2.90;;
77866;SDS011;67271;59.120;37.970;2023-03-01T11:09:22;4.07;;;2.17;;
77866;SDS011;67271;59.120;37.970;2023-03-01T11:11:51;9.02;;;2.15;;
77866;SDS011;67271;59.120;37.970;2023-03-01T11:14:20;4.07;;;1.83;;
77866;SDS011;67271;59.120;37.970;2023-03-01T11:17:04;4.55;;;2.30;;
77866;SDS011;67271;59.120;37.970;2023-03-01T11:19:40;9.82;;;3.30;;
77866;SDS011;67271;59.120;37.970;2023-03-01T11:24:40;8.38;;;3.97;;
77866;SDS011;67271;59.120;37.970;2023-03-01T11:30:09;11.65;;;3.83;;
77866;SDS011;67271;59.120;37.970;2023-03-01T11:36:01;10.65;;;3.00;;
77866;SDS011;67271;59.120;37.970;2023-03-01T11:38:34;9.55;;;4.50;;
77866;SDS011;67271;59.120;37.970;2023-03-01T11:43:55;6.30;;;2.40;;
77866;SDS011;67271;59.120;37.970;2023-03-01T12:34:26;5.22;;;2.63;;
77866;SDS011;67271;59.120;37.970;2023-03-01T12:37:11;13.02;;;4.40;;
77866;SDS011;67271;59.120;37.970;2023-03-01T12:39:57;6.93;;;2.38;;
77866;SDS011;67271;59.120;37.970;2023-03-01T12:42:45;3.95;;;2.30;;
77866;SDS011;67271;59.120;37.970;2023-03-01T12:51:17;4.55;;;2.00;;
77866;SDS011;67271;59.120;37.970;2023-03-01T12:53:49;4.28;;;2.15;;
77866;SDS011;67271;59.120;37.970;2023-03-01T12:56:21;4.85;;;1.55;;
77866;SDS011;67271;59.120;37.970;2023-03-01T13:09:51;7.03;;;2.20;;
77866;SDS011;67271;59.120;37.970;2023-03-01T13:17:49;3.72;;;2.00;;
77866;SDS011;67271;59.120;37.970;2023-03-01T13:33:49;2.67;;;1.48;;
77866;SDS011;67271;59.120;37.970;2023-03-01T13:47:36;7.22;;;2.30;;
77866;SDS011;67271;59.120;37.970;2023-03-01T13:49:45;20.05;;;3.22;;
77866;SDS011;67271;59.120;37.970;2023-03-01T13:55:30;6.82;;;3.13;;
77866;SDS011;67271;59.120;37.970;2023-03-01T13:58:01;8.35;;;2.78;;
77866;SDS011;67271;59.120;37.970;2023-03-01T14:00:39;9.40;;;3.40;;
77866;SDS011;67271;59.120;37.970;2023-03-01T14:05:37;9.38;;;3.28;;
77866;SDS011;67271;59.120;37.970;2023-03-01T14:08:04;4.95;;;2.80;;
77866;SDS011;67271;59.120;37.970;2023-03-01T14:10:46;7.32;;;2.55;;
77866;SDS011;67271;59.120;37.970;2023-03-01T14:18:50;5.97;;;2.22;;
77866;SDS011;67271;59.120;37.970;2023-03-01T14:21:38;5.85;;;2.60;;
77866;SDS011;67271;59.120;37.970;2023-03-01T14:24:04;9.82;;;3.30;;
77866;SDS011;67271;59.120;37.970;2023-03-01T14:26:37;14.45;;;4.65;;
77866;SDS011;67271;59.120;37.970;2023-03-01T14:29:03;13.05;;;3.45;;
77866;SDS011;67271;59.120;37.970;2023-03-01T14:31:34;10.38;;;5.28;;
77866;SDS011;67271;59.120;37.970;2023-03-01T14:34:02;10.85;;;4.97;;
77866;SDS011;67271;59.120;37.970;2023-03-01T14:36:29;11.38;;;4.82;;
77866;SDS011;67271;59.120;37.970;2023-03-01T14:38:57;25.17;;;6.88;;
77866;SDS011;67271;59.120;37.970;2023-03-01T14:41:34;15.30;;;7.82;;
77866;SDS011;67271;59.120;37.970;2023-03-01T14:44:02;17.23;;;5.90;;
77866;SDS011;67271;59.120;37.970;2023-03-01T14:46:32;21.38;;;8.18;;
77866;SDS011;67271;59.120;37.970;2023-03-01T14:49:14;15.35;;;5.28;;
77866;SDS011;67271;59.120;37.970;2023-03-01T14:51:52;17.05;;;5.80;;
77866;SDS011;67271;59.120;37.970;2023-03-01T14:54:28;24.13;;;5.63;;
77866;SDS011;67271;59.120;37.970;2023-03-01T14:57:03;18.05;;;6.45;;
77866;SDS011;67271;59.120;37.970;2023-03-01T14:59:29;15.35;;;6.53;;
77866;SDS011;67271;59.120;37.970;2023-03-01T15:01:55;32.00;;;8.95;;
77866;SDS011;67271;59.120;37.970;2023-03-01T15:04:26;13.15;;;5.03;;
77866;SDS011;67271;59.120;37.970;2023-03-01T15:06:54;12.35;;;5.00;;
77866;SDS011;67271;59.120;37.970;2023-03-01T15:09:21;19.15;;;5.78;;
77866;SDS011;67271;59.120;37.970;2023-03-01T15:11:47;28.45;;;9.35;;
77866;SDS011;67271;59.120;37.970;2023-03-01T15:14:36;27.33;;;9.05;;
77866;SDS011;67271;59.120;37.970;2023-03-01T15:17:19;27.75;;;7.05;;
77866;SDS011;67271;59.120;37.970;2023-03-01T15:19:45;33.80;;;11.13;;
77866;SDS011;67271;59.120;37.970;2023-03-01T15:22:15;29.25;;;9.00;;
77866;SDS011;67271;59.120;37.970;2023-03-01T15:24:46;18.92;;;5.95;;
77866;SDS011;67271;59.120;37.970;2023-03-01T15:27:19;29.42;;;9.10;;
77866;SDS011;67271;59.120;37.970;2023-03-01T15:29:58;17.58;;;6.57;;
77866;SDS011;67271;59.120;37.970;2023-03-01T15:32:31;8.85;;;3.50;;
77866;SDS011;67271;59.120;37.970;2023-03-01T15:34:59;8.85;;;4.03;;
77866;SDS011;67271;59.120;37.970;2023-03-01T15:37:40;14.10;;;5.30;;
77866;SDS011;67271;59.120;37.970;2023-03-01T15:40:23;4.15;;;3.22;;
77866;SDS011;67271;59.120;37.970;2023-03-01T15:43:03;12.00;;;3.25;;
77866;SDS011;67271;59.120;37.970;2023-03-01T15:45:31;17.42;;;4.22;;
77866;SDS011;67271;59.120;37.970;2023-03-01T15:48:32;5.47;;;2.03;;
77866;SDS011;67271;59.120;37.970;2023-03-01T15:50:55;3.22;;;1.70;;
77866;SDS011;67271;59.120;37.970;2023-03-01T15:53:23;5.07;;;2.75;;
77866;SDS011;67271;59.120;37.970;2023-03-01T15:55:49;5.90;;;2.83;;
77866;SDS011;67271;59.120;37.970;2023-03-01T15:58:17;7.35;;;2.78;;
77866;SDS011;67271;59.120;37.970;2023-03-01T16:00:46;32.33;;;7.55;;
77866;SDS011;67271;59.120;37.970;2023-03-01T16:03:14;46.00;;;14.07;;
77866;SDS011;67271;59.120;37.970;2023-03-01T16:05:47;10.70;;;4.18;;
77866;SDS011;67271;59.120;37.970;2023-03-01T16:08:14;30.63;;;9.32;;
77866;SDS011;67271;59.120;37.970;2023-03-01T16:10:41;23.95;;;9.52;;
77866;SDS011;67271;59.120;37.970;2023-03-01T16:13:10;29.65;;;10.18;;
77866;SDS011;67271;59.120;37.970;2023-03-01T16:15:39;18.38;;;5.72;;
77866;SDS011;67271;59.120;37.970;2023-03-01T16:18:06;16.05;;;5.90;;
77866;SDS011;67271;59.120;37.970;2023-03-01T16:20:35;35.83;;;9.82;;
77866;SDS011;67271;59.120;37.970;2023-03-01T16:23:01;41.50;;;11.10;;
77866;SDS011;67271;59.120;37.970;2023-03-01T16:25:30;22.52;;;10.52;;
77866;SDS011;67271;59.120;37.970;2023-03-01T16:27:57;7.10;;;3.90;;
77866;SDS011;67271;59.120;37.970;2023-03-01T16:30:26;12.35;;;5.25;;
77866;SDS011;67271;59.120;37.970;2023-03-01T16:32:52;7.72;;;2.92;;
77866;SDS011;67271;59.120;37.970;2023-03-01T16:35:19;8.10;;;3.40;;
77866;SDS011;67271;59.120;37.970;2023-03-01T16:37:47;5.97;;;2.35;;
77866;SDS011;67271;59.120;37.970;2023-03-01T16:40:20;6.57;;;1.63;;
77866;SDS011;67271;59.120;37.970;2023-03-01T16:42:48;2.45;;;1.77;;
77866;SDS011;67271;59.120;37.970;2023-03-01T16:45:15;3.67;;;2.38;;
77866;SDS011;67271;59.120;37.970;2023-03-01T16:47:41;9.00;;;2.85;;
77866;SDS011;67271;59.120;37.970;2023-03-01T16:50:07;1.77;;;1.33;;
77866;SDS011;67271;59.120;37.970;2023-03-01T16:52:33;3.53;;;1.83;;
77866;SDS011;67271;59.120;37.970;2023-03-01T16:54:59;2.58;;;2.25;;
77866;SDS011;67271;59.120;37.970;2023-03-01T16:57:25;2.70;;;1.35;;
77866;SDS011;67271;59.120;37.970;2023-03-01T16:59:51;6.10;;;1.92;;
77866;SDS011;67271;59.120;37.970;2023-03-01T17:02:20;1.75;;;1.35;;
77866;SDS011;67271;59.120;37.970;2023-03-01T17:04:52;2.30;;;1.30;;
77866;SDS011;67271;59.120;37.970;2023-03-01T17:07:19;1.45;;;0.95;;
77866;SDS011;67271;59.120;37.970;2023-03-01T17:09:45;1.08;;;0.90;;
77866;SDS011;67271;59.120;37.970;2023-03-01T17:12:14;1.50;;;1.10;;
77866;SDS011;67271;59.120;37.970;2023-03-01T17:14:40;4.55;;;2.00;;
77866;SDS011;67271;59.120;37.970;2023-03-01T17:17:10;2.42;;;1.58;;
77866;SDS011;67271;59.120;37.970;2023-03-01T17:19:36;2.42;;;1.15;;
77866;SDS011;67271;59.120;37.970;2023-03-01T17:22:09;1.98;;;1.48;;
77866;SDS011;67271;59.120;37.970;2023-03-01T17:24:36;1.85;;;0.85;;